Terminal Aerodrome Forecast
Issued by NWS Charleston, WV

Current Version | Previous Version | Graphics & Text | Print | Product List | Glossary On
Versions: 1 2 3 4 5 6 7 8 9 10 11 12 13 14 15 16 17 18 19 20 21 22 23 24 25 26 27 28 29 30
000
FTUS41 KRLX 210500 RRA
TAFBKW
TAF
KBKW 210547Z 2106/2206 VRB03KT P6SM BKN035
     FM210800 00000KT 6SM BR BKN025
     FM211500 28005KT P6SM BKN015
     FM211700 28006KT P6SM VCTS BKN025CB
     FM212000 27005KT 6SM TSRA BR BKN040CB
     FM220100 00000KT P6SM VCTS BKN040CB
     FM220500 00000KT P6SM BKN040=

USA.gov is the U.S. government's official web portal to all federal, state and local government web resources and services.